sensor_id;sensor_type;location;lat;lon;timestamp;P1;durP1;ratioP1;P2;durP2;ratioP2
61152;SDS011;47030;50.732;4.286;2022-07-10T00:00:39;2.80;;;2.15;;
61152;SDS011;47030;50.732;4.286;2022-07-10T00:03:05;6.97;;;2.40;;
61152;SDS011;47030;50.732;4.286;2022-07-10T00:05:31;5.40;;;2.50;;
61152;SDS011;47030;50.732;4.286;2022-07-10T00:07:59;5.12;;;2.35;;
61152;SDS011;47030;50.732;4.286;2022-07-10T00:10:26;8.00;;;2.50;;
61152;SDS011;47030;50.732;4.286;2022-07-10T00:12:53;6.03;;;2.47;;
61152;SDS011;47030;50.732;4.286;2022-07-10T00:15:19;9.57;;;2.55;;
61152;SDS011;47030;50.732;4.286;2022-07-10T00:17:46;8.10;;;2.42;;
61152;SDS011;47030;50.732;4.286;2022-07-10T00:20:12;8.07;;;2.30;;
61152;SDS011;47030;50.732;4.286;2022-07-10T00:22:39;5.22;;;2.70;;
61152;SDS011;47030;50.732;4.286;2022-07-10T00:25:05;9.55;;;3.22;;
61152;SDS011;47030;50.732;4.286;2022-07-10T00:27:33;5.53;;;2.58;;
61152;SDS011;47030;50.732;4.286;2022-07-10T00:29:58;2.47;;;2.08;;
61152;SDS011;47030;50.732;4.286;2022-07-10T00:32:24;4.43;;;2.70;;
61152;SDS011;47030;50.732;4.286;2022-07-10T00:34:50;4.05;;;2.00;;
61152;SDS011;47030;50.732;4.286;2022-07-10T00:37:16;3.53;;;2.28;;
61152;SDS011;47030;50.732;4.286;2022-07-10T00:39:42;7.28;;;2.78;;
61152;SDS011;47030;50.732;4.286;2022-07-10T00:42:09;7.15;;;2.30;;
61152;SDS011;47030;50.732;4.286;2022-07-10T00:44:37;7.80;;;2.55;;
61152;SDS011;47030;50.732;4.286;2022-07-10T00:47:03;8.43;;;2.95;;
61152;SDS011;47030;50.732;4.286;2022-07-10T00:49:30;6.32;;;2.67;;
61152;SDS011;47030;50.732;4.286;2022-07-10T00:52:00;4.90;;;2.20;;
61152;SDS011;47030;50.732;4.286;2022-07-10T00:54:28;6.18;;;2.60;;
61152;SDS011;47030;50.732;4.286;2022-07-10T00:56:55;5.30;;;2.78;;
61152;SDS011;47030;50.732;4.286;2022-07-10T00:59:23;9.77;;;2.70;;
61152;SDS011;47030;50.732;4.286;2022-07-10T01:01:51;8.98;;;2.70;;
61152;SDS011;47030;50.732;4.286;2022-07-10T01:04:17;11.25;;;3.00;;
61152;SDS011;47030;50.732;4.286;2022-07-10T01:06:43;5.35;;;2.58;;
61152;SDS011;47030;50.732;4.286;2022-07-10T01:09:09;6.60;;;2.70;;
61152;SDS011;47030;50.732;4.286;2022-07-10T01:11:35;6.60;;;3.05;;
61152;SDS011;47030;50.732;4.286;2022-07-10T01:14:05;6.45;;;2.87;;
61152;SDS011;47030;50.732;4.286;2022-07-10T01:16:31;8.73;;;3.40;;
61152;SDS011;47030;50.732;4.286;2022-07-10T01:18:57;6.75;;;3.42;;
61152;SDS011;47030;50.732;4.286;2022-07-10T01:21:33;5.75;;;3.00;;
61152;SDS011;47030;50.732;4.286;2022-07-10T01:24:01;8.00;;;3.53;;
61152;SDS011;47030;50.732;4.286;2022-07-10T01:26:33;6.62;;;3.40;;
61152;SDS011;47030;50.732;4.286;2022-07-10T01:29:00;5.62;;;2.90;;
61152;SDS011;47030;50.732;4.286;2022-07-10T01:31:31;4.00;;;2.83;;
61152;SDS011;47030;50.732;4.286;2022-07-10T01:33:59;5.75;;;3.22;;
61152;SDS011;47030;50.732;4.286;2022-07-10T01:36:25;4.60;;;3.17;;
61152;SDS011;47030;50.732;4.286;2022-07-10T01:38:53;4.78;;;3.40;;
61152;SDS011;47030;50.732;4.286;2022-07-10T01:41:20;6.65;;;3.53;;
61152;SDS011;47030;50.732;4.286;2022-07-10T01:43:46;5.65;;;3.17;;
61152;SDS011;47030;50.732;4.286;2022-07-10T01:46:13;5.43;;;3.55;;
61152;SDS011;47030;50.732;4.286;2022-07-10T01:48:39;5.10;;;3.30;;
61152;SDS011;47030;50.732;4.286;2022-07-10T01:51:06;7.05;;;3.20;;
61152;SDS011;47030;50.732;4.286;2022-07-10T01:53:32;6.10;;;3.28;;
61152;SDS011;47030;50.732;4.286;2022-07-10T01:55:58;8.07;;;3.33;;
61152;SDS011;47030;50.732;4.286;2022-07-10T01:58:27;7.35;;;3.25;;
61152;SDS011;47030;50.732;4.286;2022-07-10T02:00:53;6.68;;;3.40;;
61152;SDS011;47030;50.732;4.286;2022-07-10T02:03:19;5.00;;;3.60;;
61152;SDS011;47030;50.732;4.286;2022-07-10T02:06:03;8.55;;;3.55;;
61152;SDS011;47030;50.732;4.286;2022-07-10T02:08:29;8.82;;;3.70;;
61152;SDS011;47030;50.732;4.286;2022-07-10T02:10:55;6.00;;;3.42;;
61152;SDS011;47030;50.732;4.286;2022-07-10T02:13:20;7.45;;;4.05;;
61152;SDS011;47030;50.732;4.286;2022-07-10T02:15:46;9.05;;;4.15;;
61152;SDS011;47030;50.732;4.286;2022-07-10T02:18:12;7.12;;;3.78;;
61152;SDS011;47030;50.732;4.286;2022-07-10T02:20:38;5.72;;;3.67;;
61152;SDS011;47030;50.732;4.286;2022-07-10T02:23:04;4.97;;;3.35;;
61152;SDS011;47030;50.732;4.286;2022-07-10T02:25:31;4.35;;;3.15;;
61152;SDS011;47030;50.732;4.286;2022-07-10T02:27:58;7.87;;;3.97;;
61152;SDS011;47030;50.732;4.286;2022-07-10T02:30:24;9.20;;;3.72;;
61152;SDS011;47030;50.732;4.286;2022-07-10T02:32:49;7.40;;;4.12;;
61152;SDS011;47030;50.732;4.286;2022-07-10T02:35:15;5.85;;;3.12;;
61152;SDS011;47030;50.732;4.286;2022-07-10T02:37:41;7.75;;;3.70;;
61152;SDS011;47030;50.732;4.286;2022-07-10T02:40:08;6.90;;;3.30;;
61152;SDS011;47030;50.732;4.286;2022-07-10T02:42:34;7.03;;;3.60;;
61152;SDS011;47030;50.732;4.286;2022-07-10T02:45:00;6.22;;;3.90;;
61152;SDS011;47030;50.732;4.286;2022-07-10T02:47:26;5.75;;;3.58;;
61152;SDS011;47030;50.732;4.286;2022-07-10T02:49:51;7.12;;;3.65;;
61152;SDS011;47030;50.732;4.286;2022-07-10T02:52:17;5.93;;;4.00;;
61152;SDS011;47030;50.732;4.286;2022-07-10T02:54:43;6.03;;;3.65;;
61152;SDS011;47030;50.732;4.286;2022-07-10T02:57:09;6.10;;;3.72;;
61152;SDS011;47030;50.732;4.286;2022-07-10T02:59:34;5.72;;;3.58;;
61152;SDS011;47030;50.732;4.286;2022-07-10T03:02:00;7.78;;;3.70;;
61152;SDS011;47030;50.732;4.286;2022-07-10T03:04:27;5.97;;;3.97;;
61152;SDS011;47030;50.732;4.286;2022-07-10T03:06:52;5.93;;;4.00;;
61152;SDS011;47030;50.732;4.286;2022-07-10T03:09:18;6.97;;;3.72;;
61152;SDS011;47030;50.732;4.286;2022-07-10T03:11:44;6.10;;;4.37;;
61152;SDS011;47030;50.732;4.286;2022-07-10T03:14:10;7.97;;;4.10;;
61152;SDS011;47030;50.732;4.286;2022-07-10T03:16:36;6.75;;;3.97;;
61152;SDS011;47030;50.732;4.286;2022-07-10T03:19:02;4.53;;;3.33;;
61152;SDS011;47030;50.732;4.286;2022-07-10T03:21:28;9.85;;;4.10;;
61152;SDS011;47030;50.732;4.286;2022-07-10T03:23:55;7.80;;;4.12;;
61152;SDS011;47030;50.732;4.286;2022-07-10T03:26:21;5.50;;;3.70;;
61152;SDS011;47030;50.732;4.286;2022-07-10T03:28:47;7.15;;;3.95;;
61152;SDS011;47030;50.732;4.286;2022-07-10T03:31:13;8.38;;;4.00;;
61152;SDS011;47030;50.732;4.286;2022-07-10T03:33:38;9.02;;;4.18;;
61152;SDS011;47030;50.732;4.286;2022-07-10T03:36:04;6.70;;;3.87;;
61152;SDS011;47030;50.732;4.286;2022-07-10T03:38:30;5.37;;;3.90;;
61152;SDS011;47030;50.732;4.286;2022-07-10T03:40:57;8.25;;;4.22;;
61152;SDS011;47030;50.732;4.286;2022-07-10T03:43:23;7.65;;;4.10;;
61152;SDS011;47030;50.732;4.286;2022-07-10T03:45:49;8.77;;;3.80;;
61152;SDS011;47030;50.732;4.286;2022-07-10T03:48:16;7.10;;;3.80;;
61152;SDS011;47030;50.732;4.286;2022-07-10T03:50:42;9.02;;;3.70;;
61152;SDS011;47030;50.732;4.286;2022-07-10T03:53:08;6.68;;;3.60;;
61152;SDS011;47030;50.732;4.286;2022-07-10T03:55:33;7.20;;;3.90;;
61152;SDS011;47030;50.732;4.286;2022-07-10T03:57:59;5.07;;;3.97;;
61152;SDS011;47030;50.732;4.286;2022-07-10T04:00:28;6.32;;;4.07;;
61152;SDS011;47030;50.732;4.286;2022-07-10T04:03:01;5.75;;;3.78;;
61152;SDS011;47030;50.732;4.286;2022-07-10T04:05:28;5.75;;;4.03;;
61152;SDS011;47030;50.732;4.286;2022-07-10T04:07:55;6.50;;;3.67;;
61152;SDS011;47030;50.732;4.286;2022-07-10T04:10:28;5.57;;;3.58;;
61152;SDS011;47030;50.732;4.286;2022-07-10T04:12:56;7.18;;;3.40;;
61152;SDS011;47030;50.732;4.286;2022-07-10T04:15:22;5.20;;;3.70;;
61152;SDS011;47030;50.732;4.286;2022-07-10T04:17:48;4.80;;;3.42;;
61152;SDS011;47030;50.732;4.286;2022-07-10T04:20:15;5.32;;;2.80;;
61152;SDS011;47030;50.732;4.286;2022-07-10T04:22:41;8.98;;;3.17;;
61152;SDS011;47030;50.732;4.286;2022-07-10T04:25:07;4.35;;;2.65;;
61152;SDS011;47030;50.732;4.286;2022-07-10T04:27:33;3.85;;;2.53;;
61152;SDS011;47030;50.732;4.286;2022-07-10T04:29:59;4.50;;;2.45;;
61152;SDS011;47030;50.732;4.286;2022-07-10T04:32:26;4.65;;;2.40;;
61152;SDS011;47030;50.732;4.286;2022-07-10T04:34:53;4.30;;;2.10;;
61152;SDS011;47030;50.732;4.286;2022-07-10T04:37:19;3.97;;;2.40;;
61152;SDS011;47030;50.732;4.286;2022-07-10T04:39:45;3.95;;;2.20;;
61152;SDS011;47030;50.732;4.286;2022-07-10T04:42:11;5.20;;;2.30;;
61152;SDS011;47030;50.732;4.286;2022-07-10T04:44:37;4.28;;;2.60;;
61152;SDS011;47030;50.732;4.286;2022-07-10T04:47:03;5.85;;;2.37;;
61152;SDS011;47030;50.732;4.286;2022-07-10T04:49:29;4.82;;;2.20;;
61152;SDS011;47030;50.732;4.286;2022-07-10T04:51:55;5.47;;;2.30;;
61152;SDS011;47030;50.732;4.286;2022-07-10T04:54:21;4.22;;;1.98;;
61152;SDS011;47030;50.732;4.286;2022-07-10T04:56:47;3.25;;;1.85;;
61152;SDS011;47030;50.732;4.286;2022-07-10T04:59:13;3.97;;;1.90;;
61152;SDS011;47030;50.732;4.286;2022-07-10T05:01:39;4.07;;;2.10;;
61152;SDS011;47030;50.732;4.286;2022-07-10T05:04:05;4.05;;;2.22;;
61152;SDS011;47030;50.732;4.286;2022-07-10T05:06:31;3.67;;;2.15;;
61152;SDS011;47030;50.732;4.286;2022-07-10T05:08:57;2.80;;;1.95;;
61152;SDS011;47030;50.732;4.286;2022-07-10T05:11:22;3.58;;;2.42;;
61152;SDS011;47030;50.732;4.286;2022-07-10T05:13:48;3.80;;;1.90;;
61152;SDS011;47030;50.732;4.286;2022-07-10T05:16:15;3.17;;;1.73;;
61152;SDS011;47030;50.732;4.286;2022-07-10T05:18:41;2.67;;;1.98;;
61152;SDS011;47030;50.732;4.286;2022-07-10T05:21:07;6.47;;;2.70;;
61152;SDS011;47030;50.732;4.286;2022-07-10T05:23:33;5.47;;;2.03;;
61152;SDS011;47030;50.732;4.286;2022-07-10T05:25:59;5.45;;;2.20;;
61152;SDS011;47030;50.732;4.286;2022-07-10T05:28:24;4.72;;;2.10;;
61152;SDS011;47030;50.732;4.286;2022-07-10T05:30:50;4.72;;;2.17;;
61152;SDS011;47030;50.732;4.286;2022-07-10T05:33:16;3.35;;;1.92;;
61152;SDS011;47030;50.732;4.286;2022-07-10T05:35:43;2.70;;;2.05;;
61152;SDS011;47030;50.732;4.286;2022-07-10T05:38:08;4.65;;;2.17;;
61152;SDS011;47030;50.732;4.286;2022-07-10T05:40:34;2.70;;;1.85;;
61152;SDS011;47030;50.732;4.286;2022-07-10T05:43:00;4.07;;;2.30;;
61152;SDS011;47030;50.732;4.286;2022-07-10T05:45:26;7.15;;;2.03;;
61152;SDS011;47030;50.732;4.286;2022-07-10T05:47:52;5.25;;;2.60;;
61152;SDS011;47030;50.732;4.286;2022-07-10T05:50:18;5.87;;;2.53;;
61152;SDS011;47030;50.732;4.286;2022-07-10T05:52:44;4.72;;;2.00;;
61152;SDS011;47030;50.732;4.286;2022-07-10T05:55:10;4.68;;;2.37;;
61152;SDS011;47030;50.732;4.286;2022-07-10T05:57:36;9.32;;;2.95;;
61152;SDS011;47030;50.732;4.286;2022-07-10T06:00:03;6.00;;;2.28;;
61152;SDS011;47030;50.732;4.286;2022-07-10T06:02:30;5.20;;;2.85;;
61152;SDS011;47030;50.732;4.286;2022-07-10T06:04:56;4.28;;;2.10;;
61152;SDS011;47030;50.732;4.286;2022-07-10T06:07:21;2.83;;;1.90;;
61152;SDS011;47030;50.732;4.286;2022-07-10T06:09:48;4.70;;;2.15;;
61152;SDS011;47030;50.732;4.286;2022-07-10T06:12:14;5.30;;;2.03;;
61152;SDS011;47030;50.732;4.286;2022-07-10T06:14:40;4.18;;;1.98;;
61152;SDS011;47030;50.732;4.286;2022-07-10T06:17:07;5.37;;;2.20;;
61152;SDS011;47030;50.732;4.286;2022-07-10T06:19:32;5.25;;;2.28;;
61152;SDS011;47030;50.732;4.286;2022-07-10T06:21:58;5.05;;;2.10;;
61152;SDS011;47030;50.732;4.286;2022-07-10T06:24:43;3.72;;;2.03;;
61152;SDS011;47030;50.732;4.286;2022-07-10T06:27:09;4.43;;;2.17;;
61152;SDS011;47030;50.732;4.286;2022-07-10T06:29:35;7.00;;;2.42;;
61152;SDS011;47030;50.732;4.286;2022-07-10T06:32:00;3.75;;;2.28;;
61152;SDS011;47030;50.732;4.286;2022-07-10T06:34:26;5.35;;;3.08;;
61152;SDS011;47030;50.732;4.286;2022-07-10T06:36:52;6.65;;;2.60;;
61152;SDS011;47030;50.732;4.286;2022-07-10T06:39:18;9.07;;;2.62;;
61152;SDS011;47030;50.732;4.286;2022-07-10T06:41:44;5.72;;;2.30;;
61152;SDS011;47030;50.732;4.286;2022-07-10T06:44:09;5.50;;;2.55;;
61152;SDS011;47030;50.732;4.286;2022-07-10T06:46:35;5.97;;;2.17;;
61152;SDS011;47030;50.732;4.286;2022-07-10T06:49:01;5.57;;;2.12;;
61152;SDS011;47030;50.732;4.286;2022-07-10T06:51:27;5.40;;;2.40;;
61152;SDS011;47030;50.732;4.286;2022-07-10T06:53:53;5.03;;;1.90;;
61152;SDS011;47030;50.732;4.286;2022-07-10T06:56:20;4.03;;;1.87;;
61152;SDS011;47030;50.732;4.286;2022-07-10T06:58:46;11.25;;;2.25;;
61152;SDS011;47030;50.732;4.286;2022-07-10T07:01:12;6.00;;;2.28;;
61152;SDS011;47030;50.732;4.286;2022-07-10T07:03:37;3.50;;;1.95;;
61152;SDS011;47030;50.732;4.286;2022-07-10T07:06:03;5.03;;;2.08;;
61152;SDS011;47030;50.732;4.286;2022-07-10T07:08:29;5.43;;;1.75;;
61152;SDS011;47030;50.732;4.286;2022-07-10T07:10:55;6.37;;;1.90;;
61152;SDS011;47030;50.732;4.286;2022-07-10T07:13:21;2.08;;;1.50;;
61152;SDS011;47030;50.732;4.286;2022-07-10T07:15:47;7.05;;;2.00;;
61152;SDS011;47030;50.732;4.286;2022-07-10T07:18:23;5.20;;;2.20;;
61152;SDS011;47030;50.732;4.286;2022-07-10T07:20:57;6.40;;;2.17;;
61152;SDS011;47030;50.732;4.286;2022-07-10T07:23:41;3.87;;;1.95;;
61152;SDS011;47030;50.732;4.286;2022-07-10T07:26:07;5.80;;;1.95;;
61152;SDS011;47030;50.732;4.286;2022-07-10T07:28:33;4.45;;;1.73;;
61152;SDS011;47030;50.732;4.286;2022-07-10T07:30:59;8.90;;;2.12;;
61152;SDS011;47030;50.732;4.286;2022-07-10T07:33:25;4.90;;;1.60;;
61152;SDS011;47030;50.732;4.286;2022-07-10T07:35:50;6.00;;;1.70;;
61152;SDS011;47030;50.732;4.286;2022-07-10T07:38:16;4.15;;;1.75;;
61152;SDS011;47030;50.732;4.286;2022-07-10T07:40:42;6.68;;;1.90;;
61152;SDS011;47030;50.732;4.286;2022-07-10T07:43:08;6.28;;;1.87;;
61152;SDS011;47030;50.732;4.286;2022-07-10T07:45:34;5.53;;;2.03;;
61152;SDS011;47030;50.732;4.286;2022-07-10T07:48:00;4.78;;;1.83;;
61152;SDS011;47030;50.732;4.286;2022-07-10T07:50:33;7.72;;;1.55;;
61152;SDS011;47030;50.732;4.286;2022-07-10T07:53:00;3.60;;;1.62;;
61152;SDS011;47030;50.732;4.286;2022-07-10T07:55:27;7.12;;;1.95;;
61152;SDS011;47030;50.732;4.286;2022-07-10T07:57:55;4.15;;;1.40;;
61152;SDS011;47030;50.732;4.286;2022-07-10T08:00:22;5.07;;;1.80;;
61152;SDS011;47030;50.732;4.286;2022-07-10T08:02:49;5.03;;;1.73;;
61152;SDS011;47030;50.732;4.286;2022-07-10T08:05:16;5.15;;;2.10;;
61152;SDS011;47030;50.732;4.286;2022-07-10T08:07:44;6.25;;;1.62;;
61152;SDS011;47030;50.732;4.286;2022-07-10T08:10:18;3.53;;;1.48;;
61152;SDS011;47030;50.732;4.286;2022-07-10T08:12:46;3.85;;;1.60;;
61152;SDS011;47030;50.732;4.286;2022-07-10T08:15:13;2.92;;;1.40;;
61152;SDS011;47030;50.732;4.286;2022-07-10T08:17:43;4.82;;;1.55;;
61152;SDS011;47030;50.732;4.286;2022-07-10T08:20:12;5.03;;;1.48;;
61152;SDS011;47030;50.732;4.286;2022-07-10T08:22:39;3.30;;;1.25;;
61152;SDS011;47030;50.732;4.286;2022-07-10T08:25:05;4.05;;;1.80;;
61152;SDS011;47030;50.732;4.286;2022-07-10T08:27:32;6.15;;;1.60;;
61152;SDS011;47030;50.732;4.286;2022-07-10T08:29:57;5.00;;;1.60;;
61152;SDS011;47030;50.732;4.286;2022-07-10T08:32:23;3.33;;;1.30;;
61152;SDS011;47030;50.732;4.286;2022-07-10T08:34:49;4.37;;;1.50;;
61152;SDS011;47030;50.732;4.286;2022-07-10T08:37:15;4.72;;;1.45;;
61152;SDS011;47030;50.732;4.286;2022-07-10T08:39:41;3.55;;;1.33;;
61152;SDS011;47030;50.732;4.286;2022-07-10T08:42:08;6.07;;;1.52;;
61152;SDS011;47030;50.732;4.286;2022-07-10T08:44:35;5.60;;;1.45;;
61152;SDS011;47030;50.732;4.286;2022-07-10T08:47:02;2.55;;;1.08;;
61152;SDS011;47030;50.732;4.286;2022-07-10T08:49:29;3.87;;;1.20;;
61152;SDS011;47030;50.732;4.286;2022-07-10T08:52:08;4.03;;;1.60;;
61152;SDS011;47030;50.732;4.286;2022-07-10T08:54:38;3.40;;;1.20;;
61152;SDS011;47030;50.732;4.286;2022-07-10T08:57:04;3.28;;;1.33;;
61152;SDS011;47030;50.732;4.286;2022-07-10T08:59:30;3.42;;;1.55;;
61152;SDS011;47030;50.732;4.286;2022-07-10T09:01:57;3.80;;;1.50;;
61152;SDS011;47030;50.732;4.286;2022-07-10T09:04:24;5.07;;;1.55;;
61152;SDS011;47030;50.732;4.286;2022-07-10T09:06:54;3.87;;;1.40;;
61152;SDS011;47030;50.732;4.286;2022-07-10T09:09:20;5.45;;;1.70;;
61152;SDS011;47030;50.732;4.286;2022-07-10T09:11:47;7.93;;;1.90;;
61152;SDS011;47030;50.732;4.286;2022-07-10T09:14:16;4.32;;;1.60;;
61152;SDS011;47030;50.732;4.286;2022-07-10T09:16:42;3.50;;;1.62;;
61152;SDS011;47030;50.732;4.286;2022-07-10T09:19:14;2.62;;;1.45;;
61152;SDS011;47030;50.732;4.286;2022-07-10T09:21:42;4.85;;;1.58;;
61152;SDS011;47030;50.732;4.286;2022-07-10T09:24:08;3.78;;;1.45;;
61152;SDS011;47030;50.732;4.286;2022-07-10T09:26:37;3.72;;;1.37;;
61152;SDS011;47030;50.732;4.286;2022-07-10T09:29:11;2.60;;;1.37;;
61152;SDS011;47030;50.732;4.286;2022-07-10T09:37:21;4.10;;;1.55;;
61152;SDS011;47030;50.732;4.286;2022-07-10T09:39:58;4.68;;;1.50;;
61152;SDS011;47030;50.732;4.286;2022-07-10T09:47:54;2.85;;;1.62;;
61152;SDS011;47030;50.732;4.286;2022-07-10T09:50:23;5.97;;;1.60;;
61152;SDS011;47030;50.732;4.286;2022-07-10T09:52:56;2.60;;;1.45;;
61152;SDS011;47030;50.732;4.286;2022-07-10T09:55:27;4.20;;;1.77;;
61152;SDS011;47030;50.732;4.286;2022-07-10T10:00:30;3.30;;;1.50;;
61152;SDS011;47030;50.732;4.286;2022-07-10T10:02:59;3.78;;;1.40;;
61152;SDS011;47030;50.732;4.286;2022-07-10T10:05:34;4.62;;;1.52;;
61152;SDS011;47030;50.732;4.286;2022-07-10T10:08:27;4.57;;;1.80;;
61152;SDS011;47030;50.732;4.286;2022-07-10T10:10:56;3.45;;;1.52;;
61152;SDS011;47030;50.732;4.286;2022-07-10T10:13:23;5.22;;;1.80;;
61152;SDS011;47030;50.732;4.286;2022-07-10T10:15:53;4.18;;;1.50;;
61152;SDS011;47030;50.732;4.286;2022-07-10T10:18:21;3.05;;;1.58;;
61152;SDS011;47030;50.732;4.286;2022-07-10T10:20:49;5.60;;;1.70;;
61152;SDS011;47030;50.732;4.286;2022-07-10T10:23:18;3.22;;;1.37;;
61152;SDS011;47030;50.732;4.286;2022-07-10T10:25:52;5.25;;;1.70;;
61152;SDS011;47030;50.732;4.286;2022-07-10T10:28:22;2.47;;;1.40;;
61152;SDS011;47030;50.732;4.286;2022-07-10T10:30:51;2.97;;;1.48;;
61152;SDS011;47030;50.732;4.286;2022-07-10T10:36:00;4.35;;;1.70;;
61152;SDS011;47030;50.732;4.286;2022-07-10T10:41:24;4.87;;;1.40;;
61152;SDS011;47030;50.732;4.286;2022-07-10T10:49:18;4.70;;;1.58;;
61152;SDS011;47030;50.732;4.286;2022-07-10T10:54:24;3.35;;;1.55;;
61152;SDS011;47030;50.732;4.286;2022-07-10T10:57:11;4.28;;;1.80;;
61152;SDS011;47030;50.732;4.286;2022-07-10T10:59:47;3.20;;;1.67;;
61152;SDS011;47030;50.732;4.286;2022-07-10T11:02:31;4.57;;;1.90;;
61152;SDS011;47030;50.732;4.286;2022-07-10T11:05:44;4.60;;;1.75;;
61152;SDS011;47030;50.732;4.286;2022-07-10T11:07:59;4.85;;;1.90;;
61152;SDS011;47030;50.732;4.286;2022-07-10T11:13:08;3.20;;;1.65;;
61152;SDS011;47030;50.732;4.286;2022-07-10T11:15:40;5.12;;;1.83;;
61152;SDS011;47030;50.732;4.286;2022-07-10T11:18:10;4.07;;;1.62;;
61152;SDS011;47030;50.732;4.286;2022-07-10T11:20:41;3.10;;;1.60;;
61152;SDS011;47030;50.732;4.286;2022-07-10T11:26:05;4.22;;;2.25;;
61152;SDS011;47030;50.732;4.286;2022-07-10T11:31:07;2.60;;;1.92;;
61152;SDS011;47030;50.732;4.286;2022-07-10T11:33:39;2.78;;;1.90;;
61152;SDS011;47030;50.732;4.286;2022-07-10T11:36:11;4.53;;;2.03;;
61152;SDS011;47030;50.732;4.286;2022-07-10T11:38:39;5.15;;;2.08;;
61152;SDS011;47030;50.732;4.286;2022-07-10T11:41:13;2.80;;;1.92;;
61152;SDS011;47030;50.732;4.286;2022-07-10T11:43:47;4.87;;;2.22;;
61152;SDS011;47030;50.732;4.286;2022-07-10T11:46:20;3.87;;;2.28;;
61152;SDS011;47030;50.732;4.286;2022-07-10T11:48:48;3.87;;;1.90;;
61152;SDS011;47030;50.732;4.286;2022-07-10T11:51:24;5.47;;;2.00;;
61152;SDS011;47030;50.732;4.286;2022-07-10T11:53:59;3.62;;;1.60;;
61152;SDS011;47030;50.732;4.286;2022-07-10T11:56:28;3.08;;;2.00;;
61152;SDS011;47030;50.732;4.286;2022-07-10T11:59:08;3.15;;;1.73;;
61152;SDS011;47030;50.732;4.286;2022-07-10T12:01:39;4.97;;;1.70;;
61152;SDS011;47030;50.732;4.286;2022-07-10T12:04:13;3.58;;;2.03;;
61152;SDS011;47030;50.732;4.286;2022-07-10T12:06:47;4.05;;;1.73;;
61152;SDS011;47030;50.732;4.286;2022-07-10T12:09:15;5.00;;;1.80;;
61152;SDS011;47030;50.732;4.286;2022-07-10T12:11:43;2.78;;;1.70;;
61152;SDS011;47030;50.732;4.286;2022-07-10T12:14:22;5.05;;;1.70;;
61152;SDS011;47030;50.732;4.286;2022-07-10T12:16:49;5.50;;;1.60;;
61152;SDS011;47030;50.732;4.286;2022-07-10T12:19:19;1.50;;;1.30;;
61152;SDS011;47030;50.732;4.286;2022-07-10T12:21:55;2.95;;;1.40;;
61152;SDS011;47030;50.732;4.286;2022-07-10T12:24:22;2.10;;;1.50;;
61152;SDS011;47030;50.732;4.286;2022-07-10T12:26:49;4.07;;;1.70;;
61152;SDS011;47030;50.732;4.286;2022-07-10T12:29:27;3.58;;;1.50;;
61152;SDS011;47030;50.732;4.286;2022-07-10T12:31:55;5.07;;;1.87;;
61152;SDS011;47030;50.732;4.286;2022-07-10T12:34:32;4.22;;;1.60;;
61152;SDS011;47030;50.732;4.286;2022-07-10T12:37:06;3.30;;;1.90;;
61152;SDS011;47030;50.732;4.286;2022-07-10T12:39:36;5.25;;;1.70;;
61152;SDS011;47030;50.732;4.286;2022-07-10T12:42:06;3.67;;;1.90;;
61152;SDS011;47030;50.732;4.286;2022-07-10T12:44:33;3.00;;;1.67;;
61152;SDS011;47030;50.732;4.286;2022-07-10T12:47:02;2.83;;;1.58;;
61152;SDS011;47030;50.732;4.286;2022-07-10T12:52:27;3.85;;;1.70;;
61152;SDS011;47030;50.732;4.286;2022-07-10T12:57:50;2.78;;;1.50;;
61152;SDS011;47030;50.732;4.286;2022-07-10T13:00:23;4.22;;;1.70;;
61152;SDS011;47030;50.732;4.286;2022-07-10T13:03:05;4.75;;;1.45;;
61152;SDS011;47030;50.732;4.286;2022-07-10T13:05:33;4.30;;;1.75;;
61152;SDS011;47030;50.732;4.286;2022-07-10T13:08:10;4.97;;;1.70;;
61152;SDS011;47030;50.732;4.286;2022-07-10T13:10:41;4.87;;;1.60;;
61152;SDS011;47030;50.732;4.286;2022-07-10T13:13:11;3.47;;;1.45;;
61152;SDS011;47030;50.732;4.286;2022-07-10T13:15:37;4.28;;;1.60;;
61152;SDS011;47030;50.732;4.286;2022-07-10T13:18:18;3.78;;;1.45;;
61152;SDS011;47030;50.732;4.286;2022-07-10T13:20:46;3.85;;;1.40;;
61152;SDS011;47030;50.732;4.286;2022-07-10T13:23:13;4.03;;;1.95;;
61152;SDS011;47030;50.732;4.286;2022-07-10T13:25:39;3.47;;;1.40;;
61152;SDS011;47030;50.732;4.286;2022-07-10T13:28:09;3.87;;;1.73;;
61152;SDS011;47030;50.732;4.286;2022-07-10T13:30:36;2.55;;;1.37;;
61152;SDS011;47030;50.732;4.286;2022-07-10T13:33:02;3.83;;;2.00;;
61152;SDS011;47030;50.732;4.286;2022-07-10T13:35:28;2.90;;;1.30;;
61152;SDS011;47030;50.732;4.286;2022-07-10T13:37:54;2.35;;;1.60;;
61152;SDS011;47030;50.732;4.286;2022-07-10T13:40:25;1.98;;;1.30;;
61152;SDS011;47030;50.732;4.286;2022-07-10T13:42:51;2.87;;;1.40;;
61152;SDS011;47030;50.732;4.286;2022-07-10T13:45:18;1.75;;;1.20;;
61152;SDS011;47030;50.732;4.286;2022-07-10T13:47:45;1.67;;;1.25;;
61152;SDS011;47030;50.732;4.286;2022-07-10T13:50:10;2.42;;;1.50;;
61152;SDS011;47030;50.732;4.286;2022-07-10T13:52:36;4.62;;;1.40;;
61152;SDS011;47030;50.732;4.286;2022-07-10T13:55:02;3.15;;;1.33;;
61152;SDS011;47030;50.732;4.286;2022-07-10T13:57:29;5.03;;;1.48;;
61152;SDS011;47030;50.732;4.286;2022-07-10T13:59:55;1.90;;;1.45;;
61152;SDS011;47030;50.732;4.286;2022-07-10T14:02:21;1.65;;;1.12;;
61152;SDS011;47030;50.732;4.286;2022-07-10T14:04:47;2.33;;;1.50;;
61152;SDS011;47030;50.732;4.286;2022-07-10T14:07:13;2.60;;;1.10;;
61152;SDS011;47030;50.732;4.286;2022-07-10T14:09:39;1.80;;;1.30;;
61152;SDS011;47030;50.732;4.286;2022-07-10T14:12:05;4.18;;;1.30;;
61152;SDS011;47030;50.732;4.286;2022-07-10T14:14:31;4.18;;;1.95;;
61152;SDS011;47030;50.732;4.286;2022-07-10T14:16:57;5.37;;;1.50;;
61152;SDS011;47030;50.732;4.286;2022-07-10T14:19:23;2.20;;;1.30;;
61152;SDS011;47030;50.732;4.286;2022-07-10T14:21:48;2.25;;;1.40;;
61152;SDS011;47030;50.732;4.286;2022-07-10T14:24:14;5.32;;;1.62;;
61152;SDS011;47030;50.732;4.286;2022-07-10T14:26:40;2.50;;;1.30;;
61152;SDS011;47030;50.732;4.286;2022-07-10T14:29:05;3.55;;;1.37;;
61152;SDS011;47030;50.732;4.286;2022-07-10T14:31:32;2.00;;;1.20;;
61152;SDS011;47030;50.732;4.286;2022-07-10T14:33:58;2.80;;;1.02;;
61152;SDS011;47030;50.732;4.286;2022-07-10T14:36:24;3.58;;;1.40;;
61152;SDS011;47030;50.732;4.286;2022-07-10T14:38:54;1.42;;;1.20;;
61152;SDS011;47030;50.732;4.286;2022-07-10T14:41:21;1.67;;;1.00;;
61152;SDS011;47030;50.732;4.286;2022-07-10T14:43:48;2.90;;;1.27;;
61152;SDS011;47030;50.732;4.286;2022-07-10T14:46:14;3.92;;;1.30;;
61152;SDS011;47030;50.732;4.286;2022-07-10T14:48:40;3.33;;;1.27;;
61152;SDS011;47030;50.732;4.286;2022-07-10T14:51:06;3.78;;;1.20;;
61152;SDS011;47030;50.732;4.286;2022-07-10T14:53:32;3.62;;;1.17;;
61152;SDS011;47030;50.732;4.286;2022-07-10T14:56:00;1.62;;;1.10;;
61152;SDS011;47030;50.732;4.286;2022-07-10T14:58:27;2.03;;;1.10;;
61152;SDS011;47030;50.732;4.286;2022-07-10T15:00:53;3.58;;;1.50;;
61152;SDS011;47030;50.732;4.286;2022-07-10T15:03:19;3.20;;;1.30;;
61152;SDS011;47030;50.732;4.286;2022-07-10T15:05:44;2.67;;;1.08;;
61152;SDS011;47030;50.732;4.286;2022-07-10T15:08:10;1.58;;;1.10;;
61152;SDS011;47030;50.732;4.286;2022-07-10T15:10:36;1.58;;;1.30;;
61152;SDS011;47030;50.732;4.286;2022-07-10T15:13:02;2.85;;;1.33;;
61152;SDS011;47030;50.732;4.286;2022-07-10T15:15:30;2.80;;;1.25;;
61152;SDS011;47030;50.732;4.286;2022-07-10T15:17:57;1.70;;;1.40;;
61152;SDS011;47030;50.732;4.286;2022-07-10T15:20:23;2.33;;;1.37;;
61152;SDS011;47030;50.732;4.286;2022-07-10T15:22:48;4.55;;;1.45;;
61152;SDS011;47030;50.732;4.286;2022-07-10T15:25:14;3.40;;;1.40;;
61152;SDS011;47030;50.732;4.286;2022-07-10T15:27:40;6.82;;;1.60;;
61152;SDS011;47030;50.732;4.286;2022-07-10T15:30:07;3.22;;;1.40;;
61152;SDS011;47030;50.732;4.286;2022-07-10T15:32:36;1.77;;;1.27;;